sensor_id;sensor_type;location;lat;lon;timestamp;temperature;humidity
22173;DHT22;11252;50.596;17.648;2023-06-10T00:00:01;16.40;92.20
22173;DHT22;11252;50.596;17.648;2023-06-10T00:02:28;16.40;92.20
22173;DHT22;11252;50.596;17.648;2023-06-10T00:04:56;16.40;92.20
22173;DHT22;11252;50.596;17.648;2023-06-10T00:07:24;16.40;92.20
22173;DHT22;11252;50.596;17.648;2023-06-10T00:09:51;16.40;92.20
22173;DHT22;11252;50.596;17.648;2023-06-10T00:12:18;16.40;92.20
22173;DHT22;11252;50.596;17.648;2023-06-10T00:14:47;16.40;92.20
22173;DHT22;11252;50.596;17.648;2023-06-10T00:17:17;16.40;92.20
22173;DHT22;11252;50.596;17.648;2023-06-10T00:19:44;16.50;92.20
22173;DHT22;11252;50.596;17.648;2023-06-10T00:22:16;16.50;92.20
22173;DHT22;11252;50.596;17.648;2023-06-10T00:24:44;16.50;92.20
22173;DHT22;11252;50.596;17.648;2023-06-10T00:27:11;16.50;92.20
22173;DHT22;11252;50.596;17.648;2023-06-10T00:29:39;16.40;92.20
22173;DHT22;11252;50.596;17.648;2023-06-10T00:32:06;16.40;92.20
22173;DHT22;11252;50.596;17.648;2023-06-10T00:34:34;16.40;92.20
22173;DHT22;11252;50.596;17.648;2023-06-10T00:37:02;16.40;92.20
22173;DHT22;11252;50.596;17.648;2023-06-10T00:39:30;16.30;92.20
22173;DHT22;11252;50.596;17.648;2023-06-10T00:41:57;16.30;92.20
22173;DHT22;11252;50.596;17.648;2023-06-10T00:44:24;16.30;92.20
22173;DHT22;11252;50.596;17.648;2023-06-10T00:46:52;16.40;92.20
22173;DHT22;11252;50.596;17.648;2023-06-10T00:49:22;16.40;92.20
22173;DHT22;11252;50.596;17.648;2023-06-10T00:51:49;16.40;92.20
22173;DHT22;11252;50.596;17.648;2023-06-10T00:54:17;16.40;92.20
22173;DHT22;11252;50.596;17.648;2023-06-10T00:56:46;16.30;92.20
22173;DHT22;11252;50.596;17.648;2023-06-10T00:59:14;16.30;92.20
22173;DHT22;11252;50.596;17.648;2023-06-10T01:01:42;16.30;92.20
22173;DHT22;11252;50.596;17.648;2023-06-10T01:04:10;16.30;92.20
22173;DHT22;11252;50.596;17.648;2023-06-10T01:06:54;16.30;92.20
22173;DHT22;11252;50.596;17.648;2023-06-10T01:15:23;16.40;92.20
22173;DHT22;11252;50.596;17.648;2023-06-10T01:18:02;16.40;92.20
22173;DHT22;11252;50.596;17.648;2023-06-10T01:20:33;16.50;92.20
22173;DHT22;11252;50.596;17.648;2023-06-10T01:23:02;16.50;92.20
22173;DHT22;11252;50.596;17.648;2023-06-10T01:25:33;16.50;92.20
22173;DHT22;11252;50.596;17.648;2023-06-10T01:28:33;16.40;92.20
22173;DHT22;11252;50.596;17.648;2023-06-10T01:33:53;16.40;92.20
22173;DHT22;11252;50.596;17.648;2023-06-10T01:36:22;16.40;92.20
22173;DHT22;11252;50.596;17.648;2023-06-10T01:38:52;16.30;92.20
22173;DHT22;11252;50.596;17.648;2023-06-10T01:41:21;16.30;92.20
22173;DHT22;11252;50.596;17.648;2023-06-10T01:43:48;16.30;92.20
22173;DHT22;11252;50.596;17.648;2023-06-10T01:46:16;16.30;92.20
22173;DHT22;11252;50.596;17.648;2023-06-10T01:48:48;16.30;92.20
22173;DHT22;11252;50.596;17.648;2023-06-10T01:51:16;16.30;92.20
22173;DHT22;11252;50.596;17.648;2023-06-10T01:53:44;16.30;92.20
22173;DHT22;11252;50.596;17.648;2023-06-10T01:56:11;16.30;92.20
22173;DHT22;11252;50.596;17.648;2023-06-10T01:58:43;16.30;92.20
22173;DHT22;11252;50.596;17.648;2023-06-10T02:01:14;16.30;92.20
22173;DHT22;11252;50.596;17.648;2023-06-10T02:03:41;16.30;92.20
22173;DHT22;11252;50.596;17.648;2023-06-10T02:06:09;16.30;92.20
22173;DHT22;11252;50.596;17.648;2023-06-10T02:08:36;16.30;92.20
22173;DHT22;11252;50.596;17.648;2023-06-10T02:11:04;16.30;92.20
22173;DHT22;11252;50.596;17.648;2023-06-10T02:13:31;16.30;92.20
22173;DHT22;11252;50.596;17.648;2023-06-10T02:15:58;16.30;92.20
22173;DHT22;11252;50.596;17.648;2023-06-10T02:18:27;16.30;92.20
22173;DHT22;11252;50.596;17.648;2023-06-10T02:20:55;16.40;92.20
22173;DHT22;11252;50.596;17.648;2023-06-10T02:23:22;16.30;92.20
22173;DHT22;11252;50.596;17.648;2023-06-10T02:25:51;16.30;92.20
22173;DHT22;11252;50.596;17.648;2023-06-10T02:28:18;16.40;92.20
22173;DHT22;11252;50.596;17.648;2023-06-10T02:30:45;16.40;92.20
22173;DHT22;11252;50.596;17.648;2023-06-10T02:33:14;16.40;92.20
22173;DHT22;11252;50.596;17.648;2023-06-10T02:35:42;16.40;92.20
22173;DHT22;11252;50.596;17.648;2023-06-10T02:38:09;16.50;92.20
22173;DHT22;11252;50.596;17.648;2023-06-10T02:40:36;16.50;92.20
22173;DHT22;11252;50.596;17.648;2023-06-10T02:43:04;16.50;92.20
22173;DHT22;11252;50.596;17.648;2023-06-10T02:45:31;16.40;92.20
22173;DHT22;11252;50.596;17.648;2023-06-10T02:47:58;16.40;92.20
22173;DHT22;11252;50.596;17.648;2023-06-10T02:50:26;16.40;92.20
22173;DHT22;11252;50.596;17.648;2023-06-10T02:52:53;16.40;92.20
22173;DHT22;11252;50.596;17.648;2023-06-10T02:55:20;16.40;92.20
22173;DHT22;11252;50.596;17.648;2023-06-10T02:57:48;16.40;92.20
22173;DHT22;11252;50.596;17.648;2023-06-10T03:00:15;16.40;92.20
22173;DHT22;11252;50.596;17.648;2023-06-10T03:02:43;16.40;92.20
22173;DHT22;11252;50.596;17.648;2023-06-10T03:05:12;16.40;92.20
22173;DHT22;11252;50.596;17.648;2023-06-10T03:07:40;16.40;92.20
22173;DHT22;11252;50.596;17.648;2023-06-10T03:10:07;16.40;92.20
22173;DHT22;11252;50.596;17.648;2023-06-10T03:12:35;16.40;92.20
22173;DHT22;11252;50.596;17.648;2023-06-10T03:15:02;16.40;92.20
22173;DHT22;11252;50.596;17.648;2023-06-10T03:17:31;16.40;92.20
22173;DHT22;11252;50.596;17.648;2023-06-10T03:19:59;16.40;92.20
22173;DHT22;11252;50.596;17.648;2023-06-10T03:22:28;16.40;92.20
22173;DHT22;11252;50.596;17.648;2023-06-10T03:24:56;16.40;92.20
22173;DHT22;11252;50.596;17.648;2023-06-10T03:27:24;16.40;92.20
22173;DHT22;11252;50.596;17.648;2023-06-10T03:29:52;16.50;92.20
22173;DHT22;11252;50.596;17.648;2023-06-10T03:32:19;16.40;92.20
22173;DHT22;11252;50.596;17.648;2023-06-10T03:34:46;16.40;92.20
22173;DHT22;11252;50.596;17.648;2023-06-10T03:37:14;16.50;92.20
22173;DHT22;11252;50.596;17.648;2023-06-10T03:39:42;16.50;92.20
22173;DHT22;11252;50.596;17.648;2023-06-10T03:42:09;16.50;92.20
22173;DHT22;11252;50.596;17.648;2023-06-10T03:44:37;16.50;92.20
22173;DHT22;11252;50.596;17.648;2023-06-10T03:47:05;16.50;92.20
22173;DHT22;11252;50.596;17.648;2023-06-10T03:49:32;16.60;92.20
22173;DHT22;11252;50.596;17.648;2023-06-10T03:52:00;16.60;92.20
22173;DHT22;11252;50.596;17.648;2023-06-10T03:54:27;16.60;92.20
22173;DHT22;11252;50.596;17.648;2023-06-10T03:56:55;16.60;92.20
22173;DHT22;11252;50.596;17.648;2023-06-10T03:59:23;16.60;92.20
22173;DHT22;11252;50.596;17.648;2023-06-10T04:01:50;16.60;92.20
22173;DHT22;11252;50.596;17.648;2023-06-10T04:04:17;16.60;92.20
22173;DHT22;11252;50.596;17.648;2023-06-10T04:06:44;16.60;92.20
22173;DHT22;11252;50.596;17.648;2023-06-10T04:09:12;16.60;92.20
22173;DHT22;11252;50.596;17.648;2023-06-10T04:11:39;16.60;92.20
22173;DHT22;11252;50.596;17.648;2023-06-10T04:14:07;16.70;92.20
22173;DHT22;11252;50.596;17.648;2023-06-10T04:16:35;16.70;92.20
22173;DHT22;11252;50.596;17.648;2023-06-10T04:19:02;16.80;92.20
22173;DHT22;11252;50.596;17.648;2023-06-10T04:21:29;16.90;92.20
22173;DHT22;11252;50.596;17.648;2023-06-10T04:23:57;17.00;92.20
22173;DHT22;11252;50.596;17.648;2023-06-10T04:26:25;17.10;92.20
22173;DHT22;11252;50.596;17.648;2023-06-10T04:28:52;17.20;92.20
22173;DHT22;11252;50.596;17.648;2023-06-10T04:31:20;17.20;92.20
22173;DHT22;11252;50.596;17.648;2023-06-10T04:33:47;17.30;92.20
22173;DHT22;11252;50.596;17.648;2023-06-10T04:36:15;17.30;92.20
22173;DHT22;11252;50.596;17.648;2023-06-10T04:38:43;17.40;92.20
22173;DHT22;11252;50.596;17.648;2023-06-10T04:41:11;17.40;92.20
22173;DHT22;11252;50.596;17.648;2023-06-10T04:43:38;17.40;92.20
22173;DHT22;11252;50.596;17.648;2023-06-10T04:46:05;17.40;92.20
22173;DHT22;11252;50.596;17.648;2023-06-10T04:48:34;17.40;92.20
22173;DHT22;11252;50.596;17.648;2023-06-10T04:51:02;17.40;92.20
22173;DHT22;11252;50.596;17.648;2023-06-10T04:53:30;17.50;92.20
22173;DHT22;11252;50.596;17.648;2023-06-10T04:55:58;17.50;92.20
22173;DHT22;11252;50.596;17.648;2023-06-10T04:58:25;17.50;92.20
22173;DHT22;11252;50.596;17.648;2023-06-10T05:00:53;17.60;92.20
22173;DHT22;11252;50.596;17.648;2023-06-10T05:03:20;17.60;92.20
22173;DHT22;11252;50.596;17.648;2023-06-10T05:05:47;17.70;92.20
22173;DHT22;11252;50.596;17.648;2023-06-10T05:08:15;17.80;92.20
22173;DHT22;11252;50.596;17.648;2023-06-10T05:10:43;17.90;92.20
22173;DHT22;11252;50.596;17.648;2023-06-10T05:13:10;18.00;92.20
22173;DHT22;11252;50.596;17.648;2023-06-10T05:15:37;18.10;92.20
22173;DHT22;11252;50.596;17.648;2023-06-10T05:18:05;18.30;92.20
22173;DHT22;11252;50.596;17.648;2023-06-10T05:20:32;18.30;92.20
22173;DHT22;11252;50.596;17.648;2023-06-10T05:22:59;18.30;92.20
22173;DHT22;11252;50.596;17.648;2023-06-10T05:25:30;18.40;92.20
22173;DHT22;11252;50.596;17.648;2023-06-10T05:27:58;18.40;92.20
22173;DHT22;11252;50.596;17.648;2023-06-10T05:30:25;18.50;92.20
22173;DHT22;11252;50.596;17.648;2023-06-10T05:32:54;18.50;92.20
22173;DHT22;11252;50.596;17.648;2023-06-10T05:35:23;18.50;92.20
22173;DHT22;11252;50.596;17.648;2023-06-10T05:37:51;18.60;92.20
22173;DHT22;11252;50.596;17.648;2023-06-10T05:40:18;18.60;92.20
22173;DHT22;11252;50.596;17.648;2023-06-10T05:42:46;18.60;92.20
22173;DHT22;11252;50.596;17.648;2023-06-10T05:45:13;18.60;92.20
22173;DHT22;11252;50.596;17.648;2023-06-10T05:47:41;18.70;92.20
22173;DHT22;11252;50.596;17.648;2023-06-10T05:50:09;18.70;92.20
22173;DHT22;11252;50.596;17.648;2023-06-10T05:52:37;18.80;92.20
22173;DHT22;11252;50.596;17.648;2023-06-10T05:55:07;18.80;92.20
22173;DHT22;11252;50.596;17.648;2023-06-10T05:57:36;18.80;92.20
22173;DHT22;11252;50.596;17.648;2023-06-10T06:00:03;18.90;92.20
22173;DHT22;11252;50.596;17.648;2023-06-10T06:02:35;19.00;92.20
22173;DHT22;11252;50.596;17.648;2023-06-10T06:05:03;19.00;92.20
22173;DHT22;11252;50.596;17.648;2023-06-10T06:07:31;19.10;92.20
22173;DHT22;11252;50.596;17.648;2023-06-10T06:09:59;19.20;92.20
22173;DHT22;11252;50.596;17.648;2023-06-10T06:12:27;19.20;92.20
22173;DHT22;11252;50.596;17.648;2023-06-10T06:14:55;19.20;92.20
22173;DHT22;11252;50.596;17.648;2023-06-10T06:17:22;19.30;92.20
22173;DHT22;11252;50.596;17.648;2023-06-10T06:19:50;19.40;92.20
22173;DHT22;11252;50.596;17.648;2023-06-10T06:22:17;19.50;92.20
22173;DHT22;11252;50.596;17.648;2023-06-10T06:24:48;19.60;92.20
22173;DHT22;11252;50.596;17.648;2023-06-10T06:27:16;19.60;92.20
22173;DHT22;11252;50.596;17.648;2023-06-10T06:29:44;19.70;92.20
22173;DHT22;11252;50.596;17.648;2023-06-10T06:32:12;19.90;92.20
22173;DHT22;11252;50.596;17.648;2023-06-10T06:34:39;20.10;92.20
22173;DHT22;11252;50.596;17.648;2023-06-10T06:37:06;20.10;92.20
22173;DHT22;11252;50.596;17.648;2023-06-10T06:39:34;20.20;92.20
22173;DHT22;11252;50.596;17.648;2023-06-10T06:42:01;20.20;92.20
22173;DHT22;11252;50.596;17.648;2023-06-10T06:44:28;20.30;92.20
22173;DHT22;11252;50.596;17.648;2023-06-10T06:46:56;20.30;92.20
22173;DHT22;11252;50.596;17.648;2023-06-10T06:49:23;20.40;92.20
22173;DHT22;11252;50.596;17.648;2023-06-10T06:51:50;20.50;92.20
22173;DHT22;11252;50.596;17.648;2023-06-10T06:54:18;20.60;92.20
22173;DHT22;11252;50.596;17.648;2023-06-10T06:56:45;20.70;92.20
22173;DHT22;11252;50.596;17.648;2023-06-10T06:59:12;20.90;92.20
22173;DHT22;11252;50.596;17.648;2023-06-10T07:01:40;21.10;92.20
22173;DHT22;11252;50.596;17.648;2023-06-10T07:04:08;21.20;92.20
22173;DHT22;11252;50.596;17.648;2023-06-10T07:06:35;21.30;92.20
22173;DHT22;11252;50.596;17.648;2023-06-10T07:09:04;21.30;92.20
22173;DHT22;11252;50.596;17.648;2023-06-10T07:11:32;21.20;92.20
22173;DHT22;11252;50.596;17.648;2023-06-10T07:13:59;21.20;92.20
22173;DHT22;11252;50.596;17.648;2023-06-10T07:16:26;21.20;92.20
22173;DHT22;11252;50.596;17.648;2023-06-10T07:18:54;21.10;92.20
22173;DHT22;11252;50.596;17.648;2023-06-10T07:21:22;21.10;92.20
22173;DHT22;11252;50.596;17.648;2023-06-10T07:23:50;21.10;92.20
22173;DHT22;11252;50.596;17.648;2023-06-10T07:26:22;21.00;92.20
22173;DHT22;11252;50.596;17.648;2023-06-10T07:28:49;21.00;92.20
22173;DHT22;11252;50.596;17.648;2023-06-10T07:31:17;20.90;92.20
22173;DHT22;11252;50.596;17.648;2023-06-10T07:33:44;20.80;92.20
22173;DHT22;11252;50.596;17.648;2023-06-10T07:36:12;20.80;92.20
22173;DHT22;11252;50.596;17.648;2023-06-10T07:38:39;20.90;92.20
22173;DHT22;11252;50.596;17.648;2023-06-10T07:41:09;20.90;92.20
22173;DHT22;11252;50.596;17.648;2023-06-10T07:43:37;20.90;92.20
22173;DHT22;11252;50.596;17.648;2023-06-10T07:46:05;21.00;92.20
22173;DHT22;11252;50.596;17.648;2023-06-10T07:48:33;21.10;92.20
22173;DHT22;11252;50.596;17.648;2023-06-10T07:51:00;21.10;92.20
22173;DHT22;11252;50.596;17.648;2023-06-10T07:53:28;21.10;92.20
22173;DHT22;11252;50.596;17.648;2023-06-10T07:55:55;21.10;92.20
22173;DHT22;11252;50.596;17.648;2023-06-10T07:58:23;21.10;92.20
22173;DHT22;11252;50.596;17.648;2023-06-10T08:00:50;21.20;92.20
22173;DHT22;11252;50.596;17.648;2023-06-10T08:03:18;21.20;92.20
22173;DHT22;11252;50.596;17.648;2023-06-10T08:05:45;21.30;92.20
22173;DHT22;11252;50.596;17.648;2023-06-10T08:08:13;21.30;92.20
22173;DHT22;11252;50.596;17.648;2023-06-10T08:10:40;21.30;92.20
22173;DHT22;11252;50.596;17.648;2023-06-10T08:13:08;21.30;92.20
22173;DHT22;11252;50.596;17.648;2023-06-10T08:15:36;21.40;92.20
22173;DHT22;11252;50.596;17.648;2023-06-10T08:18:03;21.40;92.20
22173;DHT22;11252;50.596;17.648;2023-06-10T08:20:31;21.40;92.20
22173;DHT22;11252;50.596;17.648;2023-06-10T08:22:59;21.50;92.20
22173;DHT22;11252;50.596;17.648;2023-06-10T08:25:28;21.50;92.20
22173;DHT22;11252;50.596;17.648;2023-06-10T08:27:55;21.50;92.20
22173;DHT22;11252;50.596;17.648;2023-06-10T08:30:24;21.60;92.20
22173;DHT22;11252;50.596;17.648;2023-06-10T08:32:51;21.60;92.20
22173;DHT22;11252;50.596;17.648;2023-06-10T08:35:19;21.70;92.20
22173;DHT22;11252;50.596;17.648;2023-06-10T08:37:46;21.80;92.20
22173;DHT22;11252;50.596;17.648;2023-06-10T08:40:14;22.00;92.20
22173;DHT22;11252;50.596;17.648;2023-06-10T08:42:49;22.20;92.20
22173;DHT22;11252;50.596;17.648;2023-06-10T08:45:18;22.40;92.20
22173;DHT22;11252;50.596;17.648;2023-06-10T08:47:50;22.60;92.20
22173;DHT22;11252;50.596;17.648;2023-06-10T08:50:21;22.80;92.20
22173;DHT22;11252;50.596;17.648;2023-06-10T08:52:53;23.00;92.20
22173;DHT22;11252;50.596;17.648;2023-06-10T08:55:29;23.20;92.20
22173;DHT22;11252;50.596;17.648;2023-06-10T08:58:00;23.40;92.20
22173;DHT22;11252;50.596;17.648;2023-06-10T09:00:28;23.60;92.20
22173;DHT22;11252;50.596;17.648;2023-06-10T09:02:57;23.60;92.20
22173;DHT22;11252;50.596;17.648;2023-06-10T09:05:33;23.70;92.20
22173;DHT22;11252;50.596;17.648;2023-06-10T09:08:01;23.70;92.20
22173;DHT22;11252;50.596;17.648;2023-06-10T09:10:29;23.60;92.20
22173;DHT22;11252;50.596;17.648;2023-06-10T09:12:57;23.60;92.20
22173;DHT22;11252;50.596;17.648;2023-06-10T09:15:25;23.60;92.20
22173;DHT22;11252;50.596;17.648;2023-06-10T09:17:52;23.90;92.20
22173;DHT22;11252;50.596;17.648;2023-06-10T09:20:20;24.00;92.20
22173;DHT22;11252;50.596;17.648;2023-06-10T09:22:48;24.20;91.90
22173;DHT22;11252;50.596;17.648;2023-06-10T09:25:16;24.50;91.30
22173;DHT22;11252;50.596;17.648;2023-06-10T09:27:45;24.70;91.20
22173;DHT22;11252;50.596;17.648;2023-06-10T09:30:27;24.80;91.90
22173;DHT22;11252;50.596;17.648;2023-06-10T09:32:56;24.80;91.00
22173;DHT22;11252;50.596;17.648;2023-06-10T09:35:25;24.90;89.30
22173;DHT22;11252;50.596;17.648;2023-06-10T09:37:55;25.00;90.30
22173;DHT22;11252;50.596;17.648;2023-06-10T09:40:23;25.20;91.00
22173;DHT22;11252;50.596;17.648;2023-06-10T09:42:55;25.50;90.20
22173;DHT22;11252;50.596;17.648;2023-06-10T09:45:27;25.80;88.40
22173;DHT22;11252;50.596;17.648;2023-06-10T09:47:56;25.90;87.80
22173;DHT22;11252;50.596;17.648;2023-06-10T09:50:24;25.90;87.80
22173;DHT22;11252;50.596;17.648;2023-06-10T09:52:52;26.00;89.50
22173;DHT22;11252;50.596;17.648;2023-06-10T09:55:19;26.00;87.50
22173;DHT22;11252;50.596;17.648;2023-06-10T09:57:49;26.00;87.90
22173;DHT22;11252;50.596;17.648;2023-06-10T10:00:17;26.30;84.90
22173;DHT22;11252;50.596;17.648;2023-06-10T10:02:49;26.70;84.20
22173;DHT22;11252;50.596;17.648;2023-06-10T10:05:18;27.00;86.30
22173;DHT22;11252;50.596;17.648;2023-06-10T10:07:46;26.90;86.50
22173;DHT22;11252;50.596;17.648;2023-06-10T10:10:15;27.10;84.00
22173;DHT22;11252;50.596;17.648;2023-06-10T10:12:42;27.50;84.50
22173;DHT22;11252;50.596;17.648;2023-06-10T10:15:11;27.30;82.40
22173;DHT22;11252;50.596;17.648;2023-06-10T10:20:21;27.30;84.20
22173;DHT22;11252;50.596;17.648;2023-06-10T10:22:50;27.10;81.80
22173;DHT22;11252;50.596;17.648;2023-06-10T10:25:24;27.30;81.50
22173;DHT22;11252;50.596;17.648;2023-06-10T10:28:09;27.40;82.30
22173;DHT22;11252;50.596;17.648;2023-06-10T10:30:42;27.50;82.60
22173;DHT22;11252;50.596;17.648;2023-06-10T10:35:58;27.90;79.90
22173;DHT22;11252;50.596;17.648;2023-06-10T10:38:26;27.60;80.80
22173;DHT22;11252;50.596;17.648;2023-06-10T10:40:56;27.30;79.50
22173;DHT22;11252;50.596;17.648;2023-06-10T10:43:28;27.30;81.10
22173;DHT22;11252;50.596;17.648;2023-06-10T10:45:59;27.70;79.00
22173;DHT22;11252;50.596;17.648;2023-06-10T10:48:35;28.00;79.00
22173;DHT22;11252;50.596;17.648;2023-06-10T10:51:04;28.40;78.80
22173;DHT22;11252;50.596;17.648;2023-06-10T10:53:31;28.70;77.10
22173;DHT22;11252;50.596;17.648;2023-06-10T10:56:14;28.60;80.00
22173;DHT22;11252;50.596;17.648;2023-06-10T10:58:42;28.40;78.90
22173;DHT22;11252;50.596;17.648;2023-06-10T11:01:42;28.00;79.20
22173;DHT22;11252;50.596;17.648;2023-06-10T11:04:13;28.10;79.80
22173;DHT22;11252;50.596;17.648;2023-06-10T11:06:52;27.80;79.30
22173;DHT22;11252;50.596;17.648;2023-06-10T11:09:28;27.30;78.60
22173;DHT22;11252;50.596;17.648;2023-06-10T11:11:59;27.30;79.10
22173;DHT22;11252;50.596;17.648;2023-06-10T11:14:28;27.50;77.20
22173;DHT22;11252;50.596;17.648;2023-06-10T11:16:59;27.50;79.00
22173;DHT22;11252;50.596;17.648;2023-06-10T11:19:36;27.70;78.40
22173;DHT22;11252;50.596;17.648;2023-06-10T11:22:07;27.80;76.70
22173;DHT22;11252;50.596;17.648;2023-06-10T11:24:34;27.80;77.90
22173;DHT22;11252;50.596;17.648;2023-06-10T11:29:58;27.80;77.10
22173;DHT22;11252;50.596;17.648;2023-06-10T11:32:30;27.80;78.50
22173;DHT22;11252;50.596;17.648;2023-06-10T11:34:59;27.90;77.70
22173;DHT22;11252;50.596;17.648;2023-06-10T11:37:28;27.90;76.90
22173;DHT22;11252;50.596;17.648;2023-06-10T11:39:56;27.80;76.90
22173;DHT22;11252;50.596;17.648;2023-06-10T11:42:23;27.80;77.70
22173;DHT22;11252;50.596;17.648;2023-06-10T11:44:52;27.70;78.10
22173;DHT22;11252;50.596;17.648;2023-06-10T11:47:20;27.80;77.70
22173;DHT22;11252;50.596;17.648;2023-06-10T11:49:58;27.80;76.90
22173;DHT22;11252;50.596;17.648;2023-06-10T11:52:29;27.70;75.80
22173;DHT22;11252;50.596;17.648;2023-06-10T11:54:59;27.70;76.50
22173;DHT22;11252;50.596;17.648;2023-06-10T11:57:27;27.70;78.10
22173;DHT22;11252;50.596;17.648;2023-06-10T11:59:55;27.90;79.70
22173;DHT22;11252;50.596;17.648;2023-06-10T12:02:22;27.90;78.40
22173;DHT22;11252;50.596;17.648;2023-06-10T12:04:50;27.70;78.10
22173;DHT22;11252;50.596;17.648;2023-06-10T12:07:20;27.60;77.40
22173;DHT22;11252;50.596;17.648;2023-06-10T12:09:59;27.50;80.20
22173;DHT22;11252;50.596;17.648;2023-06-10T12:12:44;27.40;77.80
22173;DHT22;11252;50.596;17.648;2023-06-10T12:15:23;27.40;79.70
22173;DHT22;11252;50.596;17.648;2023-06-10T12:17:52;27.40;76.60
22173;DHT22;11252;50.596;17.648;2023-06-10T12:20:27;27.20;77.90
22173;DHT22;11252;50.596;17.648;2023-06-10T12:22:55;27.20;77.90
22173;DHT22;11252;50.596;17.648;2023-06-10T12:25:27;27.20;75.60
22173;DHT22;11252;50.596;17.648;2023-06-10T12:27:56;27.20;76.60
22173;DHT22;11252;50.596;17.648;2023-06-10T12:30:26;27.30;75.10
22173;DHT22;11252;50.596;17.648;2023-06-10T12:32:54;27.50;74.90
22173;DHT22;11252;50.596;17.648;2023-06-10T12:35:24;27.40;74.60
22173;DHT22;11252;50.596;17.648;2023-06-10T12:38:00;27.40;75.70
22173;DHT22;11252;50.596;17.648;2023-06-10T12:40:32;27.30;76.40
22173;DHT22;11252;50.596;17.648;2023-06-10T12:43:00;27.00;75.70
22173;DHT22;11252;50.596;17.648;2023-06-10T12:45:37;26.80;76.60
22173;DHT22;11252;50.596;17.648;2023-06-10T12:48:19;26.70;76.30
22173;DHT22;11252;50.596;17.648;2023-06-10T12:50:52;26.80;75.30
22173;DHT22;11252;50.596;17.648;2023-06-10T12:53:21;26.90;74.70
22173;DHT22;11252;50.596;17.648;2023-06-10T12:55:50;27.10;73.20
22173;DHT22;11252;50.596;17.648;2023-06-10T12:58:21;27.10;72.80
22173;DHT22;11252;50.596;17.648;2023-06-10T13:00:49;27.20;72.60
22173;DHT22;11252;50.596;17.648;2023-06-10T13:03:20;27.20;71.00
22173;DHT22;11252;50.596;17.648;2023-06-10T13:05:48;27.30;71.50
22173;DHT22;11252;50.596;17.648;2023-06-10T13:08:15;27.50;72.20
22173;DHT22;11252;50.596;17.648;2023-06-10T13:10:43;27.50;70.50
22173;DHT22;11252;50.596;17.648;2023-06-10T13:13:11;27.60;69.90
22173;DHT22;11252;50.596;17.648;2023-06-10T13:15:38;27.50;70.30
22173;DHT22;11252;50.596;17.648;2023-06-10T13:18:09;27.50;70.10
22173;DHT22;11252;50.596;17.648;2023-06-10T13:20:37;27.40;71.40
22173;DHT22;11252;50.596;17.648;2023-06-10T13:23:04;27.50;70.70
22173;DHT22;11252;50.596;17.648;2023-06-10T13:25:33;27.50;70.20
22173;DHT22;11252;50.596;17.648;2023-06-10T13:28:01;27.40;70.90
22173;DHT22;11252;50.596;17.648;2023-06-10T13:30:29;27.30;71.10
22173;DHT22;11252;50.596;17.648;2023-06-10T13:32:57;27.20;72.90
22173;DHT22;11252;50.596;17.648;2023-06-10T13:35:24;27.10;70.40
22173;DHT22;11252;50.596;17.648;2023-06-10T13:37:51;26.90;69.40
22173;DHT22;11252;50.596;17.648;2023-06-10T13:40:19;26.80;73.30
22173;DHT22;11252;50.596;17.648;2023-06-10T13:42:47;26.70;71.50
22173;DHT22;11252;50.596;17.648;2023-06-10T13:45:18;26.80;71.50
22173;DHT22;11252;50.596;17.648;2023-06-10T13:47:46;26.90;72.60
22173;DHT22;11252;50.596;17.648;2023-06-10T13:50:16;26.90;72.20
22173;DHT22;11252;50.596;17.648;2023-06-10T13:52:43;27.00;72.40
22173;DHT22;11252;50.596;17.648;2023-06-10T13:55:10;27.10;72.30
22173;DHT22;11252;50.596;17.648;2023-06-10T13:57:39;27.10;71.60
22173;DHT22;11252;50.596;17.648;2023-06-10T14:00:09;27.20;72.50
22173;DHT22;11252;50.596;17.648;2023-06-10T14:02:37;27.10;71.30
22173;DHT22;11252;50.596;17.648;2023-06-10T14:05:07;27.10;71.70
22173;DHT22;11252;50.596;17.648;2023-06-10T14:07:35;26.90;70.90
22173;DHT22;11252;50.596;17.648;2023-06-10T14:10:05;26.70;71.20
22173;DHT22;11252;50.596;17.648;2023-06-10T14:12:33;26.60;70.50
22173;DHT22;11252;50.596;17.648;2023-06-10T14:15:01;26.40;70.90
22173;DHT22;11252;50.596;17.648;2023-06-10T14:17:28;26.30;71.10
22173;DHT22;11252;50.596;17.648;2023-06-10T14:19:56;26.10;71.90
22173;DHT22;11252;50.596;17.648;2023-06-10T14:22:24;26.10;72.20
22173;DHT22;11252;50.596;17.648;2023-06-10T14:24:52;26.00;72.70
22173;DHT22;11252;50.596;17.648;2023-06-10T14:27:19;25.90;73.00
22173;DHT22;11252;50.596;17.648;2023-06-10T14:29:47;25.90;73.50
22173;DHT22;11252;50.596;17.648;2023-06-10T14:32:15;25.80;74.40
22173;DHT22;11252;50.596;17.648;2023-06-10T14:34:42;25.70;74.80
22173;DHT22;11252;50.596;17.648;2023-06-10T14:37:11;25.60;75.00
22173;DHT22;11252;50.596;17.648;2023-06-10T14:39:39;25.60;75.00
22173;DHT22;11252;50.596;17.648;2023-06-10T14:42:06;25.50;75.00
22173;DHT22;11252;50.596;17.648;2023-06-10T14:44:34;25.50;75.70
22173;DHT22;11252;50.596;17.648;2023-06-10T14:47:01;25.60;75.70
22173;DHT22;11252;50.596;17.648;2023-06-10T14:49:28;25.60;74.80
22173;DHT22;11252;50.596;17.648;2023-06-10T14:51:56;25.50;75.20
22173;DHT22;11252;50.596;17.648;2023-06-10T14:54:23;25.50;74.40
22173;DHT22;11252;50.596;17.648;2023-06-10T14:56:51;25.50;74.40
22173;DHT22;11252;50.596;17.648;2023-06-10T14:59:18;25.60;74.20
22173;DHT22;11252;50.596;17.648;2023-06-10T15:01:46;25.70;74.30
22173;DHT22;11252;50.596;17.648;2023-06-10T15:04:15;25.70;73.70
22173;DHT22;11252;50.596;17.648;2023-06-10T15:06:46;25.70;74.00
22173;DHT22;11252;50.596;17.648;2023-06-10T15:09:15;25.80;73.20
22173;DHT22;11252;50.596;17.648;2023-06-10T15:11:43;25.80;73.50
22173;DHT22;11252;50.596;17.648;2023-06-10T15:14:10;25.90;72.80
22173;DHT22;11252;50.596;17.648;2023-06-10T15:16:38;25.90;73.40
22173;DHT22;11252;50.596;17.648;2023-06-10T15:19:05;26.00;72.70
22173;DHT22;11252;50.596;17.648;2023-06-10T15:21:35;26.00;72.40
22173;DHT22;11252;50.596;17.648;2023-06-10T15:24:03;25.90;72.70
22173;DHT22;11252;50.596;17.648;2023-06-10T15:26:31;25.80;73.10
22173;DHT22;11252;50.596;17.648;2023-06-10T15:28:59;25.80;73.40
22173;DHT22;11252;50.596;17.648;2023-06-10T15:31:31;25.70;72.70
22173;DHT22;11252;50.596;17.648;2023-06-10T15:33:59;25.70;73.50
22173;DHT22;11252;50.596;17.648;2023-06-10T15:36:28;25.60;73.40
22173;DHT22;11252;50.596;17.648;2023-06-10T15:39:01;25.50;74.00
22173;DHT22;11252;50.596;17.648;2023-06-10T15:41:29;25.50;74.40